createdAt,value
2023-05-05T00:03:57.034Z,19.52
2023-05-05T00:09:00.078Z,16.10
2023-05-05T00:14:01.691Z,15.57
2023-05-05T00:19:03.270Z,16.27
2023-05-05T00:24:06.716Z,13.75
2023-05-05T00:29:08.364Z,14.10
2023-05-05T00:34:10.005Z,15.68
2023-05-05T00:39:12.900Z,16.60
2023-05-05T00:44:14.692Z,12.20
2023-05-05T00:49:16.507Z,14.98
2023-05-05T00:54:19.580Z,14.48
2023-05-05T00:59:21.268Z,12.10
2023-05-05T01:04:25.552Z,13.82
2023-05-05T01:09:39.632Z,15.02
2023-05-05T01:14:54.720Z,15.30
2023-05-05T01:20:10.768Z,13.68
2023-05-05T01:25:46.759Z,16.27
2023-05-05T01:31:06.318Z,14.13
2023-05-05T01:36:25.011Z,17.77
2023-05-05T01:41:30.787Z,15.95
2023-05-05T01:46:33.961Z,15.63
2023-05-05T01:51:40.102Z,21.27
2023-05-05T01:56:42.976Z,14.05
2023-05-05T02:01:46.319Z,17.45
2023-05-05T02:06:50.861Z,16.98
2023-05-05T02:11:53.093Z,16.85
2023-05-05T02:16:58.897Z,17.48
2023-05-05T02:22:09.829Z,19.80
2023-05-05T02:27:12.049Z,16.17
2023-05-05T02:32:27.660Z,18.15
2023-05-05T02:37:36.149Z,15.13
2023-05-05T02:42:43.890Z,18.20
2023-05-05T02:52:50.031Z,15.02
2023-05-05T02:58:00.463Z,14.73
2023-05-05T03:03:10.400Z,16.67
2023-05-05T03:08:20.326Z,15.07
2023-05-05T03:13:25.316Z,14.82
2023-05-05T03:18:28.952Z,13.80
2023-05-05T03:23:35.064Z,14.93
2023-05-05T03:28:38.474Z,17.67
2023-05-05T03:33:41.192Z,14.27
2023-05-05T03:38:44.153Z,15.60
2023-05-05T03:43:48.146Z,10.23
2023-05-05T03:49:04.856Z,12.75
2023-05-05T03:54:10.163Z,12.50
2023-05-05T03:59:11.804Z,9.52
2023-05-05T04:04:13.521Z,10.00
2023-05-05T04:09:18.836Z,12.75
2023-05-05T04:14:20.458Z,9.85
2023-05-05T04:19:22.110Z,9.80
2023-05-05T04:24:27.303Z,9.93
2023-05-05T04:29:28.853Z,8.55
2023-05-05T04:34:30.443Z,5.85
2023-05-05T04:39:33.504Z,5.13
2023-05-05T04:44:35.250Z,5.30
2023-05-05T04:49:37.056Z,5.95
2023-05-05T04:54:40.093Z,4.85
2023-05-05T04:59:41.686Z,5.57
2023-05-05T05:04:43.273Z,6.63
2023-05-05T05:09:46.348Z,7.53
2023-05-05T05:14:47.960Z,6.88
2023-05-05T05:19:52.164Z,6.53
2023-05-05T05:24:57.576Z,5.72
2023-05-05T05:29:59.229Z,5.50
2023-05-05T05:35:00.802Z,5.13
2023-05-05T05:40:05.311Z,4.40
2023-05-05T05:45:08.446Z,4.40
2023-05-05T05:50:12.862Z,3.55
2023-05-05T05:55:16.036Z,6.10
2023-05-05T06:00:18.184Z,4.72
2023-05-05T06:05:27.024Z,3.92
2023-05-05T06:10:30.290Z,6.45
2023-05-05T06:15:32.107Z,8.07
2023-05-05T06:20:36.023Z,9.82
2023-05-05T06:25:39.161Z,6.30
2023-05-05T06:30:40.728Z,6.72
2023-05-05T06:35:42.389Z,6.20
2023-05-05T06:40:47.658Z,6.20
2023-05-05T06:45:49.325Z,7.20
2023-05-05T06:50:50.937Z,15.32
2023-05-05T06:55:53.924Z,6.45
2023-05-05T07:00:57.578Z,9.05
2023-05-05T07:05:59.175Z,7.63
2023-05-05T07:11:02.191Z,14.13
2023-05-05T07:16:04.424Z,11.60
2023-05-05T07:21:06.127Z,8.43
2023-05-05T07:26:09.243Z,5.88
2023-05-05T07:31:12.261Z,6.85
2023-05-05T07:36:14.142Z,7.88
2023-05-05T07:41:17.097Z,3.13
2023-05-05T07:46:18.739Z,3.40
2023-05-05T07:51:20.369Z,3.33
2023-05-05T07:56:23.594Z,6.65
2023-05-05T08:01:25.248Z,5.97
2023-05-05T08:06:26.904Z,3.38
2023-05-05T08:11:37.276Z,5.82
2023-05-05T08:16:38.862Z,4.55
2023-05-05T08:21:41.491Z,3.88
2023-05-05T08:26:46.771Z,7.93
2023-05-05T08:31:48.575Z,3.88
2023-05-05T08:36:50.258Z,5.88
2023-05-05T08:41:53.233Z,4.47
2023-05-05T08:46:56.384Z,3.15
2023-05-05T08:52:08.899Z,4.78
2023-05-05T08:57:16.252Z,21.88
2023-05-05T09:02:26.788Z,4.40
2023-05-05T09:07:28.588Z,3.42
2023-05-05T09:12:35.184Z,6.28
2023-05-05T09:17:39.539Z,2.97
2023-05-05T09:22:43.246Z,3.45
2023-05-05T09:27:47.701Z,4.97
2023-05-05T09:33:01.884Z,2.33
2023-05-05T09:38:11.272Z,4.82
2023-05-05T09:43:18.330Z,2.10
2023-05-05T09:48:24.757Z,2.55
2023-05-05T09:53:29.378Z,1.90
2023-05-05T09:58:32.632Z,4.28
2023-05-05T10:03:50.045Z,1.58
2023-05-05T10:09:03.099Z,1.15
2023-05-05T10:14:07.631Z,0.82
2023-05-05T10:19:19.404Z,1.77
2023-05-05T10:24:30.490Z,1.92
2023-05-05T10:29:45.471Z,2.30
2023-05-05T10:34:51.475Z,1.20
2023-05-05T10:39:55.218Z,2.22
2023-05-05T10:44:58.292Z,3.67
2023-05-05T10:50:06.218Z,2.00
2023-05-05T10:55:13.653Z,2.63
2023-05-05T11:00:50.648Z,1.77
2023-05-05T11:06:19.291Z,1.88
2023-05-05T11:11:58.519Z,2.03
2023-05-05T11:17:01.689Z,1.80
2023-05-05T11:22:06.142Z,1.73
2023-05-05T11:27:08.059Z,2.30
2023-05-05T11:32:14.792Z,3.75
2023-05-05T11:37:16.622Z,2.67
2023-05-05T11:42:25.878Z,2.47
2023-05-05T11:47:30.854Z,3.17
2023-05-05T11:52:32.548Z,2.25
2023-05-05T11:57:34.148Z,5.07
2023-05-05T12:02:37.157Z,3.22
2023-05-05T12:07:39.062Z,5.00
2023-05-05T12:12:40.836Z,1.80
2023-05-05T12:17:44.008Z,4.05
2023-05-05T12:22:45.617Z,4.38
2023-05-05T12:27:54.400Z,3.63
2023-05-05T12:33:02.502Z,4.50
2023-05-05T12:38:05.474Z,1.92
2023-05-05T12:43:09.390Z,6.57
2023-05-05T12:48:24.492Z,3.20
2023-05-05T12:53:27.356Z,5.25
2023-05-05T12:58:31.081Z,5.72
2023-05-05T13:03:38.774Z,2.45
2023-05-05T13:08:43.660Z,2.30
2023-05-05T13:13:47.256Z,3.13
2023-05-05T13:18:50.698Z,2.58
2023-05-05T13:23:59.116Z,3.70
2023-05-05T13:29:06.680Z,4.20
2023-05-05T13:34:09.775Z,2.88
2023-05-05T13:39:11.571Z,5.25
2023-05-05T13:44:15.316Z,3.35
2023-05-05T13:49:18.397Z,2.85
2023-05-05T13:54:20.034Z,3.70
2023-05-05T13:59:21.734Z,4.63
2023-05-05T14:04:25.062Z,2.95
2023-05-05T14:09:26.837Z,6.97
2023-05-05T14:14:30.618Z,3.60
2023-05-05T14:19:33.809Z,2.92
2023-05-05T14:24:37.144Z,2.72
2023-05-05T14:29:38.949Z,3.65
2023-05-05T14:34:41.913Z,3.70
2023-05-05T14:39:43.544Z,4.35
2023-05-05T14:44:47.627Z,3.72
2023-05-05T14:49:50.540Z,1.40
2023-05-05T14:54:52.123Z,2.38
2023-05-05T14:59:53.718Z,1.70
2023-05-05T15:04:56.744Z,2.25
2023-05-05T15:10:00.517Z,1.67
2023-05-05T15:15:04.868Z,4.15
2023-05-05T15:20:08.936Z,5.28
2023-05-05T15:25:11.309Z,3.08
2023-05-05T15:30:14.033Z,3.03
2023-05-05T15:35:17.107Z,6.43
2023-05-05T15:40:18.982Z,2.72
2023-05-05T15:45:20.761Z,2.72
2023-05-05T15:50:23.828Z,2.10
2023-05-05T15:55:25.802Z,2.85
2023-05-05T16:00:27.606Z,3.40
2023-05-05T16:05:32.746Z,4.00
2023-05-05T16:10:34.332Z,7.47
2023-05-05T16:15:47.826Z,4.72
2023-05-05T16:20:50.847Z,4.82
2023-05-05T16:25:52.508Z,5.70
2023-05-05T16:30:54.174Z,5.15
2023-05-05T16:35:57.190Z,6.55
2023-05-05T16:41:01.610Z,11.70
2023-05-05T16:46:18.596Z,4.72
2023-05-05T16:51:28.863Z,7.13
2023-05-05T16:56:32.913Z,7.30
2023-05-05T17:01:36.716Z,7.10
2023-05-05T17:06:39.951Z,9.07
2023-05-05T17:11:41.642Z,4.97
2023-05-05T17:16:50.656Z,5.55
2023-05-05T17:27:56.878Z,1.70
2023-05-05T17:33:07.239Z,3.85
2023-05-05T17:38:08.919Z,1.52
2023-05-05T17:43:11.929Z,1.25
2023-05-05T17:48:13.621Z,2.75
2023-05-05T17:53:15.284Z,2.85
2023-05-05T17:58:18.202Z,2.00
2023-05-05T18:03:20.244Z,6.07
2023-05-05T18:08:21.954Z,2.65
2023-05-05T18:13:27.567Z,1.60
2023-05-05T18:18:36.282Z,1.80
2023-05-05T18:23:38.327Z,3.55
2023-05-05T18:28:41.520Z,1.40
2023-05-05T18:33:43.783Z,2.45
2023-05-05T18:39:27.044Z,2.10
2023-05-05T18:44:29.983Z,4.25
2023-05-05T18:49:31.779Z,5.20
2023-05-05T18:54:33.984Z,4.53
2023-05-05T18:59:40.270Z,5.45
2023-05-05T19:04:42.488Z,6.15
2023-05-05T19:09:44.118Z,4.10
2023-05-05T19:14:47.331Z,2.97
2023-05-05T19:20:10.078Z,5.28
2023-05-05T19:25:12.141Z,3.67
2023-05-05T19:30:15.545Z,3.78
2023-05-05T19:35:19.999Z,3.78
2023-05-05T19:40:21.877Z,3.15
2023-05-05T19:45:25.037Z,3.25
2023-05-05T20:02:36.779Z,4.72
2023-05-05T20:07:41.907Z,4.97
2023-05-05T20:12:45.944Z,3.58
2023-05-05T20:17:49.328Z,4.38
2023-05-05T20:22:51.005Z,4.90
2023-05-05T20:27:52.628Z,7.85
2023-05-05T20:32:55.689Z,5.75
2023-05-05T20:37:57.346Z,6.97
2023-05-05T20:42:59.329Z,6.05
2023-05-05T20:54:05.444Z,5.93
2023-05-05T20:59:06.987Z,6.20
2023-05-05T21:04:08.671Z,6.50
2023-05-05T21:09:11.833Z,5.78
2023-05-05T21:14:13.416Z,7.18
2023-05-05T21:19:15.150Z,6.00
2023-05-05T21:24:20.761Z,5.97
2023-05-05T21:29:22.448Z,6.05
2023-05-05T21:34:24.211Z,4.45
2023-05-05T21:39:29.735Z,6.72
2023-05-05T21:44:34.067Z,3.78
2023-05-05T21:49:35.769Z,5.22
2023-05-05T21:54:41.393Z,5.80
2023-05-05T21:59:43.034Z,6.07
2023-05-05T22:04:44.710Z,4.32
2023-05-05T22:09:50.278Z,3.78
2023-05-05T22:14:54.025Z,4.60
2023-05-05T22:19:55.706Z,4.00
2023-05-05T22:25:01.017Z,4.50
2023-05-05T22:30:02.717Z,8.85
2023-05-05T22:35:05.304Z,4.43
2023-05-05T22:40:09.489Z,8.23
2023-05-05T22:45:11.609Z,7.10
2023-05-05T22:50:13.364Z,5.53
2023-05-05T22:55:16.379Z,6.20
2023-05-05T23:00:18.339Z,5.60
2023-05-05T23:05:20.171Z,5.63
2023-05-05T23:10:23.148Z,6.63
2023-05-05T23:15:24.725Z,6.57
2023-05-05T23:20:26.855Z,6.88
2023-05-05T23:25:36.971Z,7.18
2023-05-05T23:30:38.703Z,6.03
2023-05-05T23:35:40.376Z,7.35
2023-05-05T23:40:45.568Z,8.30
2023-05-05T23:45:47.229Z,7.53
2023-05-05T23:50:49.024Z,7.43
2023-05-05T23:55:54.265Z,8.90
